KFWN

Sussex Airport

Sussex, New Jersey, USA
METAR KFWN 201453Z AUTO 21007KT 10SM OVC005 08/07 A3032 RMK AO2 SLP269 T00780072 50004
Observed Flight Rules
Feb-20 @ 14:53 UTC (3 hours ago) Instrument Flight Rules
Wind Visibility Clouds
210° at 7 knots 10 miles
  • Overcast at 500' AGL
Temperatures Readings
Current 8°C / 46°F
Dewpoint 7°C / 45°F
Humidity 93%
Altimeter 30.32" Hg
Pressure 1026.9 hPa
Elevation 133
METAR KFWN 201453Z AUTO 21007KT 10SM OVC005 08/07 A3032 RMK AO2 SLP269 T00780072 50004
Observed Flight Rules
Feb-20 @ 14:53 UTC
(3 hours ago)
IFR
Wind Visibility
210° at 7 knots 10 miles
Clouds
  • Overcast at 500' AGL
Temperature Dewpoint
8°C / 46°F 7°C / 45°F
Humidity Altimeter Pressure
93% 30.32" Hg 1026.9 hPa